sensor_id;sensor_type;location;lat;lon;timestamp;P1;durP1;ratioP1;P2;durP2;ratioP2
77111;SDS011;66064;50.226;14.344;2023-06-04T00:02:20;6.70;;;6.07;;
77111;SDS011;66064;50.226;14.344;2023-06-04T00:04:46;7.38;;;6.88;;
77111;SDS011;66064;50.226;14.344;2023-06-04T00:07:12;7.85;;;7.45;;
77111;SDS011;66064;50.226;14.344;2023-06-04T00:09:38;6.40;;;6.00;;
77111;SDS011;66064;50.226;14.344;2023-06-04T00:12:04;6.97;;;6.57;;
77111;SDS011;66064;50.226;14.344;2023-06-04T00:14:30;5.80;;;5.47;;
77111;SDS011;66064;50.226;14.344;2023-06-04T00:16:56;7.97;;;7.18;;
77111;SDS011;66064;50.226;14.344;2023-06-04T00:19:22;5.40;;;5.10;;
77111;SDS011;66064;50.226;14.344;2023-06-04T00:21:48;6.47;;;6.07;;
77111;SDS011;66064;50.226;14.344;2023-06-04T00:24:15;7.00;;;6.13;;
77111;SDS011;66064;50.226;14.344;2023-06-04T00:26:43;6.60;;;6.10;;
77111;SDS011;66064;50.226;14.344;2023-06-04T00:29:09;5.82;;;5.53;;
77111;SDS011;66064;50.226;14.344;2023-06-04T00:31:36;8.57;;;7.10;;
77111;SDS011;66064;50.226;14.344;2023-06-04T00:34:03;7.60;;;7.13;;
77111;SDS011;66064;50.226;14.344;2023-06-04T00:36:29;8.13;;;6.30;;
77111;SDS011;66064;50.226;14.344;2023-06-04T00:38:55;7.38;;;6.82;;
77111;SDS011;66064;50.226;14.344;2023-06-04T00:41:21;8.52;;;7.93;;
77111;SDS011;66064;50.226;14.344;2023-06-04T00:43:47;6.28;;;5.78;;
77111;SDS011;66064;50.226;14.344;2023-06-04T00:46:22;6.70;;;6.20;;
77111;SDS011;66064;50.226;14.344;2023-06-04T00:48:50;9.85;;;9.07;;
77111;SDS011;66064;50.226;14.344;2023-06-04T00:51:18;6.70;;;6.30;;
77111;SDS011;66064;50.226;14.344;2023-06-04T00:53:45;7.28;;;6.68;;
77111;SDS011;66064;50.226;14.344;2023-06-04T00:56:12;8.38;;;7.68;;
77111;SDS011;66064;50.226;14.344;2023-06-04T00:58:38;6.53;;;6.07;;
77111;SDS011;66064;50.226;14.344;2023-06-04T01:01:05;7.93;;;7.43;;
77111;SDS011;66064;50.226;14.344;2023-06-04T01:03:37;7.55;;;7.13;;
77111;SDS011;66064;50.226;14.344;2023-06-04T01:06:11;6.97;;;6.63;;
77111;SDS011;66064;50.226;14.344;2023-06-04T01:08:48;7.25;;;6.63;;
77111;SDS011;66064;50.226;14.344;2023-06-04T01:11:16;6.78;;;6.38;;
77111;SDS011;66064;50.226;14.344;2023-06-04T01:13:42;6.00;;;5.60;;
77111;SDS011;66064;50.226;14.344;2023-06-04T01:16:08;8.32;;;7.57;;
77111;SDS011;66064;50.226;14.344;2023-06-04T01:18:38;5.82;;;5.50;;
77111;SDS011;66064;50.226;14.344;2023-06-04T01:21:07;7.85;;;7.35;;
77111;SDS011;66064;50.226;14.344;2023-06-04T01:26:25;7.03;;;6.53;;
77111;SDS011;66064;50.226;14.344;2023-06-04T01:28:53;8.40;;;7.90;;
77111;SDS011;66064;50.226;14.344;2023-06-04T01:31:21;6.43;;;6.03;;
77111;SDS011;66064;50.226;14.344;2023-06-04T01:33:55;7.60;;;7.20;;
77111;SDS011;66064;50.226;14.344;2023-06-04T01:36:23;7.47;;;6.72;;
77111;SDS011;66064;50.226;14.344;2023-06-04T01:38:50;6.03;;;5.63;;
77111;SDS011;66064;50.226;14.344;2023-06-04T01:41:17;7.13;;;6.63;;
77111;SDS011;66064;50.226;14.344;2023-06-04T01:43:43;6.10;;;5.70;;
77111;SDS011;66064;50.226;14.344;2023-06-04T01:46:09;7.80;;;7.28;;
77111;SDS011;66064;50.226;14.344;2023-06-04T01:48:34;10.23;;;6.85;;
77111;SDS011;66064;50.226;14.344;2023-06-04T01:51:02;9.20;;;8.40;;
77111;SDS011;66064;50.226;14.344;2023-06-04T01:53:28;5.72;;;5.32;;
77111;SDS011;66064;50.226;14.344;2023-06-04T01:55:55;7.88;;;7.18;;
77111;SDS011;66064;50.226;14.344;2023-06-04T01:58:22;8.13;;;7.72;;
77111;SDS011;66064;50.226;14.344;2023-06-04T02:00:53;7.05;;;6.65;;
77111;SDS011;66064;50.226;14.344;2023-06-04T02:03:20;7.90;;;7.40;;
77111;SDS011;66064;50.226;14.344;2023-06-04T02:05:48;7.75;;;7.20;;
77111;SDS011;66064;50.226;14.344;2023-06-04T02:08:14;7.47;;;7.05;;
77111;SDS011;66064;50.226;14.344;2023-06-04T02:10:51;11.15;;;10.55;;
77111;SDS011;66064;50.226;14.344;2023-06-04T02:13:17;6.82;;;6.43;;
77111;SDS011;66064;50.226;14.344;2023-06-04T02:15:43;6.38;;;5.97;;
77111;SDS011;66064;50.226;14.344;2023-06-04T02:18:13;7.93;;;7.38;;
77111;SDS011;66064;50.226;14.344;2023-06-04T02:20:46;7.38;;;6.97;;
77111;SDS011;66064;50.226;14.344;2023-06-04T02:23:13;9.15;;;8.45;;
77111;SDS011;66064;50.226;14.344;2023-06-04T02:25:42;6.78;;;6.38;;
77111;SDS011;66064;50.226;14.344;2023-06-04T02:28:10;8.05;;;7.65;;
77111;SDS011;66064;50.226;14.344;2023-06-04T02:30:36;6.97;;;6.55;;
77111;SDS011;66064;50.226;14.344;2023-06-04T02:33:02;7.88;;;7.38;;
77111;SDS011;66064;50.226;14.344;2023-06-04T02:35:29;7.20;;;6.55;;
77111;SDS011;66064;50.226;14.344;2023-06-04T02:37:56;8.82;;;8.38;;
77111;SDS011;66064;50.226;14.344;2023-06-04T02:40:26;7.50;;;7.00;;
77111;SDS011;66064;50.226;14.344;2023-06-04T02:42:52;7.00;;;6.38;;
77111;SDS011;66064;50.226;14.344;2023-06-04T02:45:19;7.30;;;6.85;;
77111;SDS011;66064;50.226;14.344;2023-06-04T02:47:45;8.02;;;7.28;;
77111;SDS011;66064;50.226;14.344;2023-06-04T02:50:12;8.60;;;8.10;;
77111;SDS011;66064;50.226;14.344;2023-06-04T02:52:40;7.53;;;7.13;;
77111;SDS011;66064;50.226;14.344;2023-06-04T02:55:07;9.05;;;8.65;;
77111;SDS011;66064;50.226;14.344;2023-06-04T02:57:39;9.18;;;8.57;;
77111;SDS011;66064;50.226;14.344;2023-06-04T03:00:08;7.95;;;7.47;;
77111;SDS011;66064;50.226;14.344;2023-06-04T03:02:42;8.57;;;8.18;;
77111;SDS011;66064;50.226;14.344;2023-06-04T03:05:10;6.97;;;6.63;;
77111;SDS011;66064;50.226;14.344;2023-06-04T03:07:38;11.07;;;10.27;;
77111;SDS011;66064;50.226;14.344;2023-06-04T03:10:09;16.55;;;9.30;;
77111;SDS011;66064;50.226;14.344;2023-06-04T03:12:36;8.68;;;8.27;;
77111;SDS011;66064;50.226;14.344;2023-06-04T03:15:02;7.38;;;6.88;;
77111;SDS011;66064;50.226;14.344;2023-06-04T03:17:29;7.53;;;7.13;;
77111;SDS011;66064;50.226;14.344;2023-06-04T03:19:57;6.13;;;5.72;;
77111;SDS011;66064;50.226;14.344;2023-06-04T03:22:23;6.72;;;6.40;;
77111;SDS011;66064;50.226;14.344;2023-06-04T03:24:49;8.38;;;7.95;;
77111;SDS011;66064;50.226;14.344;2023-06-04T03:27:15;8.95;;;8.43;;
77111;SDS011;66064;50.226;14.344;2023-06-04T03:29:41;7.97;;;7.47;;
77111;SDS011;66064;50.226;14.344;2023-06-04T03:32:07;6.80;;;6.40;;
77111;SDS011;66064;50.226;14.344;2023-06-04T03:34:33;8.63;;;8.02;;
77111;SDS011;66064;50.226;14.344;2023-06-04T03:36:59;7.60;;;7.20;;
77111;SDS011;66064;50.226;14.344;2023-06-04T03:39:26;8.18;;;7.78;;
77111;SDS011;66064;50.226;14.344;2023-06-04T03:41:53;6.65;;;6.28;;
77111;SDS011;66064;50.226;14.344;2023-06-04T03:44:19;7.05;;;6.57;;
77111;SDS011;66064;50.226;14.344;2023-06-04T03:46:45;8.50;;;8.00;;
77111;SDS011;66064;50.226;14.344;2023-06-04T03:49:12;8.00;;;7.40;;
77111;SDS011;66064;50.226;14.344;2023-06-04T03:51:38;10.27;;;9.65;;
77111;SDS011;66064;50.226;14.344;2023-06-04T03:54:05;8.65;;;8.07;;
77111;SDS011;66064;50.226;14.344;2023-06-04T03:56:31;8.82;;;8.32;;
77111;SDS011;66064;50.226;14.344;2023-06-04T03:58:58;10.35;;;9.65;;
77111;SDS011;66064;50.226;14.344;2023-06-04T04:01:24;6.68;;;6.28;;
77111;SDS011;66064;50.226;14.344;2023-06-04T04:03:51;6.85;;;6.45;;
77111;SDS011;66064;50.226;14.344;2023-06-04T04:06:17;6.55;;;6.18;;
77111;SDS011;66064;50.226;14.344;2023-06-04T04:08:44;8.93;;;7.50;;
77111;SDS011;66064;50.226;14.344;2023-06-04T04:11:10;6.63;;;6.10;;
77111;SDS011;66064;50.226;14.344;2023-06-04T04:13:37;6.75;;;6.35;;
77111;SDS011;66064;50.226;14.344;2023-06-04T04:16:03;6.28;;;5.43;;
77111;SDS011;66064;50.226;14.344;2023-06-04T04:18:36;5.60;;;5.20;;
77111;SDS011;66064;50.226;14.344;2023-06-04T04:21:02;8.52;;;6.40;;
77111;SDS011;66064;50.226;14.344;2023-06-04T04:23:30;8.43;;;7.82;;
77111;SDS011;66064;50.226;14.344;2023-06-04T04:25:57;5.65;;;5.15;;
77111;SDS011;66064;50.226;14.344;2023-06-04T04:28:24;8.45;;;7.75;;
77111;SDS011;66064;50.226;14.344;2023-06-04T04:30:57;7.07;;;6.57;;
77111;SDS011;66064;50.226;14.344;2023-06-04T04:33:25;5.20;;;4.65;;
77111;SDS011;66064;50.226;14.344;2023-06-04T04:35:51;7.28;;;4.97;;
77111;SDS011;66064;50.226;14.344;2023-06-04T04:38:20;6.03;;;4.72;;
77111;SDS011;66064;50.226;14.344;2023-06-04T04:40:49;4.80;;;4.20;;
77111;SDS011;66064;50.226;14.344;2023-06-04T04:43:27;4.20;;;3.85;;
77111;SDS011;66064;50.226;14.344;2023-06-04T04:45:54;5.07;;;4.65;;
77111;SDS011;66064;50.226;14.344;2023-06-04T04:48:20;8.73;;;4.90;;
77111;SDS011;66064;50.226;14.344;2023-06-04T04:50:46;7.55;;;4.93;;
77111;SDS011;66064;50.226;14.344;2023-06-04T04:53:12;5.88;;;4.55;;
77111;SDS011;66064;50.226;14.344;2023-06-04T04:55:38;5.10;;;4.15;;
77111;SDS011;66064;50.226;14.344;2023-06-04T04:58:04;4.18;;;3.78;;
77111;SDS011;66064;50.226;14.344;2023-06-04T05:00:30;4.60;;;3.80;;
77111;SDS011;66064;50.226;14.344;2023-06-04T05:02:56;7.57;;;4.47;;
77111;SDS011;66064;50.226;14.344;2023-06-04T05:05:22;5.95;;;4.28;;
77111;SDS011;66064;50.226;14.344;2023-06-04T05:07:48;5.35;;;3.28;;
77111;SDS011;66064;50.226;14.344;2023-06-04T05:10:14;5.72;;;3.92;;
77111;SDS011;66064;50.226;14.344;2023-06-04T05:12:50;7.75;;;4.07;;
77111;SDS011;66064;50.226;14.344;2023-06-04T05:15:19;3.80;;;3.38;;
77111;SDS011;66064;50.226;14.344;2023-06-04T05:17:46;3.67;;;2.92;;
77111;SDS011;66064;50.226;14.344;2023-06-04T05:20:12;5.20;;;3.95;;
77111;SDS011;66064;50.226;14.344;2023-06-04T05:22:39;4.57;;;3.58;;
77111;SDS011;66064;50.226;14.344;2023-06-04T05:25:05;4.80;;;3.65;;
77111;SDS011;66064;50.226;14.344;2023-06-04T05:27:34;4.90;;;3.60;;
77111;SDS011;66064;50.226;14.344;2023-06-04T05:30:01;5.05;;;4.20;;
77111;SDS011;66064;50.226;14.344;2023-06-04T05:32:28;6.85;;;2.90;;
77111;SDS011;66064;50.226;14.344;2023-06-04T05:34:54;3.65;;;3.03;;
77111;SDS011;66064;50.226;14.344;2023-06-04T05:37:24;4.55;;;3.05;;
77111;SDS011;66064;50.226;14.344;2023-06-04T05:39:57;5.78;;;2.88;;
77111;SDS011;66064;50.226;14.344;2023-06-04T05:42:23;3.40;;;2.45;;
77111;SDS011;66064;50.226;14.344;2023-06-04T05:44:50;3.17;;;2.30;;
77111;SDS011;66064;50.226;14.344;2023-06-04T05:47:16;3.53;;;2.53;;
77111;SDS011;66064;50.226;14.344;2023-06-04T05:49:43;5.40;;;2.75;;
77111;SDS011;66064;50.226;14.344;2023-06-04T05:52:09;3.88;;;2.53;;
77111;SDS011;66064;50.226;14.344;2023-06-04T05:54:35;4.15;;;2.70;;
77111;SDS011;66064;50.226;14.344;2023-06-04T05:57:04;4.38;;;2.58;;
77111;SDS011;66064;50.226;14.344;2023-06-04T05:59:31;4.85;;;2.60;;
77111;SDS011;66064;50.226;14.344;2023-06-04T06:01:57;4.78;;;2.47;;
77111;SDS011;66064;50.226;14.344;2023-06-04T06:04:23;3.42;;;2.42;;
77111;SDS011;66064;50.226;14.344;2023-06-04T06:06:49;3.17;;;2.20;;
77111;SDS011;66064;50.226;14.344;2023-06-04T06:09:15;3.03;;;2.42;;
77111;SDS011;66064;50.226;14.344;2023-06-04T06:11:44;3.05;;;2.10;;
77111;SDS011;66064;50.226;14.344;2023-06-04T06:14:10;4.65;;;2.53;;
77111;SDS011;66064;50.226;14.344;2023-06-04T06:16:36;3.47;;;2.35;;
77111;SDS011;66064;50.226;14.344;2023-06-04T06:19:02;4.05;;;2.55;;
77111;SDS011;66064;50.226;14.344;2023-06-04T06:21:29;3.53;;;2.28;;
77111;SDS011;66064;50.226;14.344;2023-06-04T06:23:55;3.55;;;2.35;;
77111;SDS011;66064;50.226;14.344;2023-06-04T06:26:21;3.15;;;2.45;;
77111;SDS011;66064;50.226;14.344;2023-06-04T06:28:50;4.40;;;2.10;;
77111;SDS011;66064;50.226;14.344;2023-06-04T06:31:16;3.78;;;2.25;;
77111;SDS011;66064;50.226;14.344;2023-06-04T06:33:42;7.18;;;1.70;;
77111;SDS011;66064;50.226;14.344;2023-06-04T06:36:10;4.15;;;1.85;;
77111;SDS011;66064;50.226;14.344;2023-06-04T06:38:39;3.22;;;1.95;;
77111;SDS011;66064;50.226;14.344;2023-06-04T06:41:06;3.05;;;1.73;;
77111;SDS011;66064;50.226;14.344;2023-06-04T06:43:32;2.40;;;1.67;;
77111;SDS011;66064;50.226;14.344;2023-06-04T06:45:58;3.70;;;2.80;;
77111;SDS011;66064;50.226;14.344;2023-06-04T06:48:24;2.85;;;1.73;;
77111;SDS011;66064;50.226;14.344;2023-06-04T06:50:51;4.15;;;2.28;;
77111;SDS011;66064;50.226;14.344;2023-06-04T06:53:16;2.42;;;1.60;;
77111;SDS011;66064;50.226;14.344;2023-06-04T06:55:43;4.22;;;2.10;;
77111;SDS011;66064;50.226;14.344;2023-06-04T06:58:08;2.58;;;1.50;;
77111;SDS011;66064;50.226;14.344;2023-06-04T07:00:35;2.60;;;1.80;;
77111;SDS011;66064;50.226;14.344;2023-06-04T07:03:00;3.90;;;1.90;;
77111;SDS011;66064;50.226;14.344;2023-06-04T07:05:27;2.85;;;1.65;;
77111;SDS011;66064;50.226;14.344;2023-06-04T07:07:52;2.63;;;1.67;;
77111;SDS011;66064;50.226;14.344;2023-06-04T07:10:19;3.22;;;1.48;;
77111;SDS011;66064;50.226;14.344;2023-06-04T07:12:46;3.53;;;1.70;;
77111;SDS011;66064;50.226;14.344;2023-06-04T07:15:12;2.53;;;1.50;;
77111;SDS011;66064;50.226;14.344;2023-06-04T07:17:38;3.00;;;1.70;;
77111;SDS011;66064;50.226;14.344;2023-06-04T07:20:04;3.78;;;1.60;;
77111;SDS011;66064;50.226;14.344;2023-06-04T07:22:32;3.88;;;1.67;;
77111;SDS011;66064;50.226;14.344;2023-06-04T07:24:58;2.97;;;1.70;;
77111;SDS011;66064;50.226;14.344;2023-06-04T07:27:24;3.05;;;1.80;;
77111;SDS011;66064;50.226;14.344;2023-06-04T07:29:51;1.85;;;1.48;;
77111;SDS011;66064;50.226;14.344;2023-06-04T07:32:17;2.50;;;1.70;;
77111;SDS011;66064;50.226;14.344;2023-06-04T07:34:43;2.53;;;1.45;;
77111;SDS011;66064;50.226;14.344;2023-06-04T07:37:10;2.90;;;1.60;;
77111;SDS011;66064;50.226;14.344;2023-06-04T07:39:36;3.65;;;1.58;;
77111;SDS011;66064;50.226;14.344;2023-06-04T07:42:02;2.97;;;1.40;;
77111;SDS011;66064;50.226;14.344;2023-06-04T07:44:30;2.40;;;1.40;;
77111;SDS011;66064;50.226;14.344;2023-06-04T07:46:55;2.75;;;1.50;;
77111;SDS011;66064;50.226;14.344;2023-06-04T07:49:21;3.03;;;1.67;;
77111;SDS011;66064;50.226;14.344;2023-06-04T07:51:47;2.50;;;1.45;;
77111;SDS011;66064;50.226;14.344;2023-06-04T07:54:13;2.85;;;1.83;;
77111;SDS011;66064;50.226;14.344;2023-06-04T07:56:39;2.38;;;1.33;;
77111;SDS011;66064;50.226;14.344;2023-06-04T07:59:06;3.30;;;1.83;;
77111;SDS011;66064;50.226;14.344;2023-06-04T08:01:32;1.85;;;1.27;;
77111;SDS011;66064;50.226;14.344;2023-06-04T08:03:58;3.15;;;1.50;;
77111;SDS011;66064;50.226;14.344;2023-06-04T08:06:26;4.18;;;1.55;;
77111;SDS011;66064;50.226;14.344;2023-06-04T08:08:52;5.13;;;1.60;;
77111;SDS011;66064;50.226;14.344;2023-06-04T08:11:18;2.88;;;1.75;;
77111;SDS011;66064;50.226;14.344;2023-06-04T08:13:45;2.67;;;1.45;;
77111;SDS011;66064;50.226;14.344;2023-06-04T08:16:10;2.50;;;1.40;;
77111;SDS011;66064;50.226;14.344;2023-06-04T08:18:40;3.00;;;1.30;;
77111;SDS011;66064;50.226;14.344;2023-06-04T08:21:09;3.03;;;1.20;;
77111;SDS011;66064;50.226;14.344;2023-06-04T08:23:42;5.20;;;1.80;;
77111;SDS011;66064;50.226;14.344;2023-06-04T08:26:08;2.53;;;1.50;;
77111;SDS011;66064;50.226;14.344;2023-06-04T08:28:34;3.72;;;1.50;;
77111;SDS011;66064;50.226;14.344;2023-06-04T08:31:00;2.15;;;1.30;;
77111;SDS011;66064;50.226;14.344;2023-06-04T08:33:26;4.57;;;1.50;;
77111;SDS011;66064;50.226;14.344;2023-06-04T08:35:52;2.75;;;1.63;;
77111;SDS011;66064;50.226;14.344;2023-06-04T08:38:18;2.33;;;1.42;;
77111;SDS011;66064;50.226;14.344;2023-06-04T08:40:44;2.20;;;1.42;;
77111;SDS011;66064;50.226;14.344;2023-06-04T08:43:10;3.33;;;1.60;;
77111;SDS011;66064;50.226;14.344;2023-06-04T08:45:38;2.75;;;1.52;;
77111;SDS011;66064;50.226;14.344;2023-06-04T08:48:05;3.22;;;1.65;;
77111;SDS011;66064;50.226;14.344;2023-06-04T08:50:36;3.60;;;1.70;;
77111;SDS011;66064;50.226;14.344;2023-06-04T08:53:08;2.80;;;1.52;;
77111;SDS011;66064;50.226;14.344;2023-06-04T08:55:36;3.00;;;1.40;;
77111;SDS011;66064;50.226;14.344;2023-06-04T08:58:03;2.47;;;1.50;;
77111;SDS011;66064;50.226;14.344;2023-06-04T09:00:33;2.30;;;1.30;;
77111;SDS011;66064;50.226;14.344;2023-06-04T09:02:59;3.30;;;1.48;;
77111;SDS011;66064;50.226;14.344;2023-06-04T09:05:28;3.40;;;1.50;;
77111;SDS011;66064;50.226;14.344;2023-06-04T09:07:55;2.40;;;1.65;;
77111;SDS011;66064;50.226;14.344;2023-06-04T09:10:26;3.28;;;1.40;;
77111;SDS011;66064;50.226;14.344;2023-06-04T09:12:56;2.58;;;1.30;;
77111;SDS011;66064;50.226;14.344;2023-06-04T09:15:26;3.25;;;1.48;;
77111;SDS011;66064;50.226;14.344;2023-06-04T09:17:52;2.33;;;1.35;;
77111;SDS011;66064;50.226;14.344;2023-06-04T09:20:22;4.78;;;2.35;;
77111;SDS011;66064;50.226;14.344;2023-06-04T09:22:48;2.95;;;1.65;;
77111;SDS011;66064;50.226;14.344;2023-06-04T09:25:24;2.72;;;1.40;;
77111;SDS011;66064;50.226;14.344;2023-06-04T09:27:52;6.78;;;1.30;;
77111;SDS011;66064;50.226;14.344;2023-06-04T09:30:23;2.67;;;1.27;;
77111;SDS011;66064;50.226;14.344;2023-06-04T09:32:49;2.92;;;1.25;;
77111;SDS011;66064;50.226;14.344;2023-06-04T09:35:16;2.40;;;1.05;;
77111;SDS011;66064;50.226;14.344;2023-06-04T09:37:53;2.60;;;1.20;;
77111;SDS011;66064;50.226;14.344;2023-06-04T09:40:22;3.38;;;1.48;;
77111;SDS011;66064;50.226;14.344;2023-06-04T09:42:49;3.08;;;1.50;;
77111;SDS011;66064;50.226;14.344;2023-06-04T09:47:55;2.20;;;1.25;;
77111;SDS011;66064;50.226;14.344;2023-06-04T09:50:27;4.20;;;1.45;;
77111;SDS011;66064;50.226;14.344;2023-06-04T09:52:59;1.45;;;1.20;;
77111;SDS011;66064;50.226;14.344;2023-06-04T09:55:25;3.08;;;1.40;;
77111;SDS011;66064;50.226;14.344;2023-06-04T09:57:52;2.65;;;1.35;;
77111;SDS011;66064;50.226;14.344;2023-06-04T10:00:19;2.70;;;1.30;;
77111;SDS011;66064;50.226;14.344;2023-06-04T10:02:48;2.72;;;1.70;;
77111;SDS011;66064;50.226;14.344;2023-06-04T10:05:15;2.22;;;1.48;;
77111;SDS011;66064;50.226;14.344;2023-06-04T10:07:45;2.95;;;1.30;;
77111;SDS011;66064;50.226;14.344;2023-06-04T10:10:21;3.05;;;1.25;;
77111;SDS011;66064;50.226;14.344;2023-06-04T10:12:54;2.30;;;1.45;;
77111;SDS011;66064;50.226;14.344;2023-06-04T10:15:27;3.78;;;1.80;;
77111;SDS011;66064;50.226;14.344;2023-06-04T10:17:54;3.38;;;1.33;;
77111;SDS011;66064;50.226;14.344;2023-06-04T10:20:21;4.70;;;1.30;;
77111;SDS011;66064;50.226;14.344;2023-06-04T10:22:48;2.70;;;1.67;;
77111;SDS011;66064;50.226;14.344;2023-06-04T10:25:15;2.83;;;1.35;;
77111;SDS011;66064;50.226;14.344;2023-06-04T10:27:42;3.28;;;1.38;;
77111;SDS011;66064;50.226;14.344;2023-06-04T10:30:09;2.38;;;1.30;;
77111;SDS011;66064;50.226;14.344;2023-06-04T10:32:35;3.08;;;1.75;;
77111;SDS011;66064;50.226;14.344;2023-06-04T10:35:05;2.55;;;1.20;;
77111;SDS011;66064;50.226;14.344;2023-06-04T10:37:33;3.78;;;1.20;;
77111;SDS011;66064;50.226;14.344;2023-06-04T10:39:59;3.13;;;1.70;;
77111;SDS011;66064;50.226;14.344;2023-06-04T10:42:25;2.50;;;1.50;;
77111;SDS011;66064;50.226;14.344;2023-06-04T10:44:52;1.92;;;1.27;;
77111;SDS011;66064;50.226;14.344;2023-06-04T10:47:22;1.70;;;1.10;;
77111;SDS011;66064;50.226;14.344;2023-06-04T10:49:53;2.00;;;1.27;;
77111;SDS011;66064;50.226;14.344;2023-06-04T10:52:20;1.42;;;1.20;;
77111;SDS011;66064;50.226;14.344;2023-06-04T10:54:47;3.85;;;1.40;;
77111;SDS011;66064;50.226;14.344;2023-06-04T10:57:14;1.85;;;1.20;;
77111;SDS011;66064;50.226;14.344;2023-06-04T10:59:56;3.00;;;1.23;;
77111;SDS011;66064;50.226;14.344;2023-06-04T11:02:24;4.20;;;1.33;;
77111;SDS011;66064;50.226;14.344;2023-06-04T11:05:01;2.70;;;1.42;;
77111;SDS011;66064;50.226;14.344;2023-06-04T11:07:42;1.75;;;1.35;;
77111;SDS011;66064;50.226;14.344;2023-06-04T11:10:10;2.42;;;1.50;;
77111;SDS011;66064;50.226;14.344;2023-06-04T11:12:41;2.20;;;1.35;;
77111;SDS011;66064;50.226;14.344;2023-06-04T11:15:11;2.72;;;1.20;;
77111;SDS011;66064;50.226;14.344;2023-06-04T11:17:37;2.60;;;1.15;;
77111;SDS011;66064;50.226;14.344;2023-06-04T11:20:04;3.22;;;1.30;;
77111;SDS011;66064;50.226;14.344;2023-06-04T11:22:40;4.13;;;1.20;;
77111;SDS011;66064;50.226;14.344;2023-06-04T11:25:07;2.63;;;1.40;;
77111;SDS011;66064;50.226;14.344;2023-06-04T11:27:33;4.32;;;1.50;;
77111;SDS011;66064;50.226;14.344;2023-06-04T11:30:00;4.75;;;1.40;;
77111;SDS011;66064;50.226;14.344;2023-06-04T11:32:27;2.22;;;1.30;;
77111;SDS011;66064;50.226;14.344;2023-06-04T11:35:01;1.30;;;1.13;;
77111;SDS011;66064;50.226;14.344;2023-06-04T11:37:30;1.63;;;1.30;;
77111;SDS011;66064;50.226;14.344;2023-06-04T11:39:58;1.85;;;1.15;;
77111;SDS011;66064;50.226;14.344;2023-06-04T11:42:26;3.10;;;1.50;;
77111;SDS011;66064;50.226;14.344;2023-06-04T11:44:55;4.50;;;1.70;;
77111;SDS011;66064;50.226;14.344;2023-06-04T11:47:22;4.35;;;2.08;;
77111;SDS011;66064;50.226;14.344;2023-06-04T11:49:55;3.03;;;1.60;;
77111;SDS011;66064;50.226;14.344;2023-06-04T11:52:22;3.83;;;1.52;;
77111;SDS011;66064;50.226;14.344;2023-06-04T11:54:49;2.35;;;1.45;;
77111;SDS011;66064;50.226;14.344;2023-06-04T11:57:15;2.08;;;1.48;;
77111;SDS011;66064;50.226;14.344;2023-06-04T11:59:41;2.78;;;1.63;;
77111;SDS011;66064;50.226;14.344;2023-06-04T12:02:07;2.17;;;1.40;;
77111;SDS011;66064;50.226;14.344;2023-06-04T12:04:33;2.20;;;1.45;;
77111;SDS011;66064;50.226;14.344;2023-06-04T12:07:00;2.90;;;1.50;;
77111;SDS011;66064;50.226;14.344;2023-06-04T12:09:28;2.88;;;1.40;;
77111;SDS011;66064;50.226;14.344;2023-06-04T12:12:01;1.70;;;1.33;;
77111;SDS011;66064;50.226;14.344;2023-06-04T12:17:01;3.25;;;1.63;;
77111;SDS011;66064;50.226;14.344;2023-06-04T12:19:47;2.50;;;1.55;;
77111;SDS011;66064;50.226;14.344;2023-06-04T12:22:14;1.77;;;1.52;;
77111;SDS011;66064;50.226;14.344;2023-06-04T12:24:47;2.60;;;1.80;;
77111;SDS011;66064;50.226;14.344;2023-06-04T12:27:18;2.50;;;1.60;;
77111;SDS011;66064;50.226;14.344;2023-06-04T12:29:57;2.53;;;1.70;;
77111;SDS011;66064;50.226;14.344;2023-06-04T12:32:30;2.92;;;2.15;;
77111;SDS011;66064;50.226;14.344;2023-06-04T12:35:01;2.33;;;1.60;;
77111;SDS011;66064;50.226;14.344;2023-06-04T12:37:27;2.85;;;1.70;;
77111;SDS011;66064;50.226;14.344;2023-06-04T12:39:54;2.15;;;1.60;;
77111;SDS011;66064;50.226;14.344;2023-06-04T12:42:20;3.83;;;1.70;;
77111;SDS011;66064;50.226;14.344;2023-06-04T12:44:46;2.10;;;1.40;;
77111;SDS011;66064;50.226;14.344;2023-06-04T12:47:12;2.30;;;1.63;;
77111;SDS011;66064;50.226;14.344;2023-06-04T12:49:39;2.70;;;1.60;;
77111;SDS011;66064;50.226;14.344;2023-06-04T12:52:04;2.13;;;1.55;;
77111;SDS011;66064;50.226;14.344;2023-06-04T12:54:31;2.20;;;1.65;;
77111;SDS011;66064;50.226;14.344;2023-06-04T12:56:58;2.20;;;1.75;;
77111;SDS011;66064;50.226;14.344;2023-06-04T12:59:25;2.92;;;1.70;;
77111;SDS011;66064;50.226;14.344;2023-06-04T13:01:52;3.40;;;1.63;;
77111;SDS011;66064;50.226;14.344;2023-06-04T13:04:19;3.10;;;1.98;;
77111;SDS011;66064;50.226;14.344;2023-06-04T13:06:45;2.80;;;1.88;;
77111;SDS011;66064;50.226;14.344;2023-06-04T13:09:12;4.18;;;1.95;;
77111;SDS011;66064;50.226;14.344;2023-06-04T13:11:39;2.00;;;1.50;;
77111;SDS011;66064;50.226;14.344;2023-06-04T13:14:07;3.30;;;1.80;;
77111;SDS011;66064;50.226;14.344;2023-06-04T13:16:33;2.53;;;1.67;;
77111;SDS011;66064;50.226;14.344;2023-06-04T13:19:01;3.40;;;1.80;;
77111;SDS011;66064;50.226;14.344;2023-06-04T13:21:27;2.28;;;1.58;;
77111;SDS011;66064;50.226;14.344;2023-06-04T13:23:53;3.17;;;1.92;;
77111;SDS011;66064;50.226;14.344;2023-06-04T13:26:21;2.50;;;1.90;;
77111;SDS011;66064;50.226;14.344;2023-06-04T13:28:48;2.97;;;1.75;;
77111;SDS011;66064;50.226;14.344;2023-06-04T13:31:14;2.58;;;1.70;;
77111;SDS011;66064;50.226;14.344;2023-06-04T13:33:40;2.97;;;1.75;;
77111;SDS011;66064;50.226;14.344;2023-06-04T13:36:06;2.88;;;2.00;;
77111;SDS011;66064;50.226;14.344;2023-06-04T13:38:33;2.53;;;1.75;;
77111;SDS011;66064;50.226;14.344;2023-06-04T13:40:59;2.95;;;1.92;;
77111;SDS011;66064;50.226;14.344;2023-06-04T13:43:25;1.85;;;1.63;;
77111;SDS011;66064;50.226;14.344;2023-06-04T13:45:51;2.22;;;1.90;;
77111;SDS011;66064;50.226;14.344;2023-06-04T13:48:17;2.33;;;1.67;;
77111;SDS011;66064;50.226;14.344;2023-06-04T13:50:44;3.13;;;2.00;;
77111;SDS011;66064;50.226;14.344;2023-06-04T13:53:10;8.25;;;2.08;;
77111;SDS011;66064;50.226;14.344;2023-06-04T13:55:38;2.13;;;1.60;;
77111;SDS011;66064;50.226;14.344;2023-06-04T13:58:05;2.65;;;1.75;;
77111;SDS011;66064;50.226;14.344;2023-06-04T14:00:32;2.30;;;1.50;;
77111;SDS011;66064;50.226;14.344;2023-06-04T14:02:59;2.45;;;1.92;;
77111;SDS011;66064;50.226;14.344;2023-06-04T14:05:25;2.45;;;1.70;;
77111;SDS011;66064;50.226;14.344;2023-06-04T14:10:19;2.80;;;1.80;;
77111;SDS011;66064;50.226;14.344;2023-06-04T14:12:46;2.08;;;1.52;;
77111;SDS011;66064;50.226;14.344;2023-06-04T14:15:12;2.78;;;1.63;;
77111;SDS011;66064;50.226;14.344;2023-06-04T14:17:38;2.03;;;1.80;;
77111;SDS011;66064;50.226;14.344;2023-06-04T14:20:05;2.83;;;1.67;;
77111;SDS011;66064;50.226;14.344;2023-06-04T14:22:35;2.55;;;1.60;;
77111;SDS011;66064;50.226;14.344;2023-06-04T14:25:05;2.15;;;1.75;;
77111;SDS011;66064;50.226;14.344;2023-06-04T14:27:33;2.47;;;1.73;;
77111;SDS011;66064;50.226;14.344;2023-06-04T14:30:00;3.03;;;1.80;;
77111;SDS011;66064;50.226;14.344;2023-06-04T14:32:28;2.85;;;2.05;;
77111;SDS011;66064;50.226;14.344;2023-06-04T14:34:53;3.15;;;1.92;;
77111;SDS011;66064;50.226;14.344;2023-06-04T14:37:21;3.42;;;2.10;;
77111;SDS011;66064;50.226;14.344;2023-06-04T14:39:47;2.70;;;1.63;;
77111;SDS011;66064;50.226;14.344;2023-06-04T14:42:13;2.30;;;1.50;;
77111;SDS011;66064;50.226;14.344;2023-06-04T14:44:39;2.40;;;1.60;;
77111;SDS011;66064;50.226;14.344;2023-06-04T14:47:05;2.15;;;1.83;;